Castlegar, British Columbia

5:52 PM PDT on September 30, 2014 (GMT -0700)
Castlegar | Change Station
CLOSE
Current Station
Airport
Location: Castlegar,
Elevation: 1624 ft
Nearby Weather Stations

Elev 1624 ft 49.30 °N, 117.63 °W | Updated 1 hour ago

Scattered Clouds
Scattered Clouds
64 °F
Feels Like 64 °F
N
7
Wind Variable Wind from Variable

Tomorrow is forecast to be nearly the same temperature as today.

Today
High -- | Low -- °F
--% Chance of Precip.
Yesterday
High -- | Low -- °F
Precip. -- in
6:48 AM 6:31 PM
Waxing Crescent, 41% visible
Pressure 29.86 in
Visibility 15.0 miles
Clouds Few 7000 ft
Scattered Clouds 14000 ft
Dew Point 43 °F
Humidity 45%
Rainfall 0.00 in
Snow Depth Not available.
UV 1 out of 12
Pollen Not available.
Air Quality Not available.
Flu Activity Not available.
METAR CYCG 302300Z VRB06KT 15SM FEW070 SCT140 18/06 A2986 RMK AC2AC1 SLP112 DENSITY ALT 2300FT

More Conditions Fewer Conditions

Pressure 29.86 in
Visibility 15.0 miles
Clouds Few 7000 ft
Scattered Clouds 14000 ft
Dew Point 43 °F
Humidity 45%
Rainfall 0.00 in
Snow Depth Not available.
UV 1 out of 12
Pollen Not available.
Air Quality Not available.
Flu Activity Not available.
METAR CYCG 302300Z VRB06KT 15SM FEW070 SCT140 18/06 A2986 RMK AC2AC1 SLP112 DENSITY ALT 2300FT

More Conditions Fewer Conditions

10-Day Weather Forecast

Almanac

Astronomy

Sep. 30, 2014 Rise Set
Actual Time 6:48 AM PDT 6:31 PM PDT
Civil Twilight 6:17 AM PDT 7:02 PM PDT
Nautical Twilight 5:40 AM PDT 7:39 PM PDT
Astronomical Twilight 5:02 AM PDT 8:17 PM PDT
Moon 1:25 PM PDT (9/30) 10:41 PM PDT (9/30)
Length of Visible Light 12h 45m
Length of Day
11h 42m
Tomorrow will be 3m 37s shorter.
Waxing Crescent, 41% of the Moon is Illuminated
Today
Waxing Crescent
Oct 1
First Quarter
Oct 8
Full
Oct 15
Last Quarter
Oct 23
New

Today's Extremes

Country Highs Country Lows

Community

WunderPhotos

Upload Photos

1,757,801 photos uploaded!

Nearby

Snow Depth

Not available.

Earthquake Activity

City Distance Mag. Time & Date
No recent earthquake activity has been reported nearby.
Minimum magnitude displayed is 2.5.

Coastal Water Temperatures

Place Temperature
No Stations Reporting

Nearby Weather Stations